Time;durP1;ratioP1;P1;durP2;ratioP2;P2;SDS_P1;SDS_P2;PMS_P1;PMS_P2;Temp;Humidity;BMP_temperature;BMP_pressure;BME280_temperature;BME280_humidity;BME280_pressure;Samples;Min_cycle;Max_cycle;Signal;HPM_P1;HPM_P2
2022/03/29 00:02:26;;;;;;;23.75;13.48;;;8.00;62.10;;;;;;5220153;28;20059;-72
2022/03/29 00:05:04;;;;;;;26.00;13.57;;;8.00;62.00;;;;;;5221399;28;20055;-71
2022/03/29 00:07:36;;;;;;;27.92;13.45;;;7.90;62.00;;;;;;5186443;28;20052;-72
2022/03/29 00:10:09;;;;;;;22.80;12.52;;;7.90;62.10;;;;;;5208765;28;21383;-72
2022/03/29 00:12:42;;;;;;;23.03;13.67;;;7.90;62.10;;;;;;5211932;28;21022;-73
2022/03/29 00:15:14;;;;;;;25.73;13.65;;;7.90;62.20;;;;;;5224099;28;20045;-72
2022/03/29 00:17:47;;;;;;;27.10;13.00;;;8.00;62.20;;;;;;5220508;28;20037;-71
2022/03/29 00:20:20;;;;;;;24.25;13.27;;;7.90;62.40;;;;;;5224074;28;20048;-70
2022/03/29 00:22:53;;;;;;;25.40;13.65;;;7.80;63.20;;;;;;5221462;28;20048;-72
2022/03/29 00:25:26;;;;;;;25.03;13.17;;;7.70;63.00;;;;;;5224618;28;20368;-72
2022/03/29 00:27:58;;;;;;;23.35;12.88;;;7.80;63.50;;;;;;5185304;28;20799;-71
2022/03/29 00:30:32;;;;;;;24.50;13.67;;;7.80;62.80;;;;;;5203681;28;20049;-70
2022/03/29 00:33:04;;;;;;;30.83;14.40;;;7.80;62.80;;;;;;5222522;28;20319;-72
2022/03/29 00:35:38;;;;;;;29.00;15.25;;;7.70;62.90;;;;;;5212950;28;20488;-72
2022/03/29 00:38:11;;;;;;;23.25;12.82;;;7.70;63.00;;;;;;5221026;28;20055;-71
2022/03/29 00:40:43;;;;;;;25.48;13.68;;;7.70;63.20;;;;;;5216804;28;20052;-72
2022/03/29 00:43:16;;;;;;;27.08;13.88;;;7.50;63.40;;;;;;5199196;28;20060;-74
2022/03/29 00:45:48;;;;;;;22.80;13.02;;;7.60;63.70;;;;;;5217123;28;20049;-72
2022/03/29 00:48:20;;;;;;;28.55;13.80;;;7.50;63.80;;;;;;5200251;28;20056;-72
2022/03/29 00:50:54;;;;;;;23.95;13.90;;;7.60;63.90;;;;;;5219265;28;20773;-72
2022/03/29 00:53:26;;;;;;;29.08;13.98;;;7.60;63.80;;;;;;5202603;28;20053;-71
2022/03/29 00:56:02;;;;;;;28.85;13.77;;;7.50;63.70;;;;;;5220848;28;20041;-70
2022/03/29 00:58:35;;;;;;;26.10;12.68;;;7.60;63.80;;;;;;5223283;28;20231;-72
2022/03/29 01:01:10;;;;;;;22.75;13.20;;;7.50;63.90;;;;;;5218676;28;20056;-71
2022/03/29 01:03:43;;;;;;;24.73;13.35;;;7.50;64.10;;;;;;5228544;28;20060;-72
2022/03/29 01:06:16;;;;;;;25.02;13.90;;;7.40;64.30;;;;;;5211643;28;20040;-71
2022/03/29 01:08:48;;;;;;;31.15;14.15;;;7.40;64.20;;;;;;5221085;28;20041;-72
2022/03/29 01:11:21;;;;;;;24.20;13.50;;;7.40;64.30;;;;;;5213162;28;20036;-72
2022/03/29 01:13:54;;;;;;;26.10;13.43;;;7.50;64.30;;;;;;5209727;28;20053;-72
2022/03/29 01:19:20;;;;;;;23.02;13.27;;;7.50;64.10;;;;;;5218314;28;20048;-72
2022/03/29 01:22:00;;;;;;;29.77;14.18;;;7.60;64.20;;;;;;5224995;28;20052;-73
2022/03/29 01:24:34;;;;;;;28.80;14.27;;;7.50;64.30;;;;;;5218330;28;20392;-71
2022/03/29 01:27:08;;;;;;;27.70;13.82;;;7.50;64.30;;;;;;5225191;28;20049;-72
2022/03/29 01:29:41;;;;;;;29.83;15.23;;;7.50;64.40;;;;;;5212558;28;20045;-72
2022/03/29 01:32:14;;;;;;;;;;;7.50;64.40;;;;;;5205016;28;20544;-72
2022/03/29 01:34:46;;;;;;;28.15;14.13;;;7.40;65.80;;;;;;5224854;28;19920;-72
2022/03/29 01:37:19;;;;;;;26.58;13.88;;;7.40;64.40;;;;;;5220031;28;20055;-72
2022/03/29 01:39:51;;;;;;;30.95;14.60;;;7.30;64.60;;;;;;5200172;28;20496;-72
2022/03/29 01:42:24;;;;;;;28.88;15.02;;;7.40;64.70;;;;;;5206924;28;20072;-72
2022/03/29 01:44:56;;;;;;;28.40;14.65;;;7.40;64.80;;;;;;5214230;28;20567;-72
2022/03/29 01:47:28;;;;;;;25.33;13.07;;;7.50;64.90;;;;;;5224249;28;20040;-72
2022/03/29 01:50:01;;;;;;;23.77;13.38;;;7.50;64.90;;;;;;5224360;28;20049;-72
2022/03/29 01:52:39;;;;;;;23.63;13.05;;;7.40;64.90;;;;;;5223378;28;20052;-72
2022/03/29 01:55:17;;;;;;;28.85;13.85;;;7.40;65.00;;;;;;5225476;28;20037;-72
2022/03/29 01:57:50;;;;;;;26.77;13.90;;;7.40;65.00;;;;;;5218560;28;20037;-74
2022/03/29 02:00:33;;;;;;;24.58;13.77;;;7.40;65.10;;;;;;5186161;28;20063;-73
2022/03/29 02:03:06;;;;;;;26.50;13.23;;;7.40;65.20;;;;;;5223613;28;20036;-73
2022/03/29 02:05:39;;;;;;;27.27;13.65;;;7.40;65.20;;;;;;5208037;28;20671;-73
2022/03/29 02:08:12;;;;;;;25.70;13.73;;;7.40;65.20;;;;;;5224600;28;20488;-70
2022/03/29 02:10:44;;;;;;;23.40;12.98;;;7.20;65.30;;;;;;5224142;28;20063;-72
2022/03/29 02:13:17;;;;;;;26.45;14.00;;;7.30;65.50;;;;;;5226519;28;20039;-72
2022/03/29 02:15:49;;;;;;;27.40;14.25;;;7.30;65.60;;;;;;5207765;28;20037;-72
2022/03/29 02:18:22;;;;;;;27.85;14.02;;;7.20;65.70;;;;;;5217906;28;20037;-73
2022/03/29 02:20:54;;;;;;;26.60;12.82;;;7.20;65.70;;;;;;5219253;28;20041;-72
2022/03/29 02:23:26;;;;;;;25.27;14.55;;;7.20;65.80;;;;;;5227090;28;20048;-72
2022/03/29 02:25:59;;;;;;;26.70;13.55;;;7.20;65.80;;;;;;5226469;28;20048;-72
2022/03/29 02:28:33;;;;;;;26.48;13.40;;;7.20;65.80;;;;;;5221568;28;20044;-72
2022/03/29 02:31:05;;;;;;;28.75;14.13;;;7.20;65.90;;;;;;5225160;28;20067;-71
2022/03/29 02:33:38;;;;;;;28.52;14.63;;;7.20;65.90;;;;;;5223643;28;20408;-73
2022/03/29 02:36:13;;;;;;;26.85;13.52;;;7.20;66.00;;;;;;5209267;28;20056;-72
2022/03/29 02:38:45;;;;;;;24.23;13.80;;;7.20;66.00;;;;;;5224810;28;20085;-73
2022/03/29 02:41:18;;;;;;;26.92;14.75;;;7.20;65.90;;;;;;5209115;28;20053;-72
2022/03/29 02:43:50;;;;;;;22.83;14.02;;;7.20;66.70;;;;;;5226816;28;20480;-72
2022/03/29 02:46:23;;;;;;;24.23;14.45;;;7.10;66.00;;;;;;5219889;28;20053;-72
2022/03/29 02:48:55;;;;;;;27.05;14.43;;;7.10;66.20;;;;;;5219919;28;20048;-71
2022/03/29 02:51:28;;;;;;;28.33;14.75;;;7.10;66.30;;;;;;5220006;28;20503;-72
2022/03/29 02:54:01;;;;;;;28.57;14.47;;;7.10;66.50;;;;;;5214742;28;20564;-72
2022/03/29 02:56:33;;;;;;;25.45;14.23;;;7.10;66.50;;;;;;5220304;28;20523;-73
2022/03/29 02:59:06;;;;;;;28.55;14.68;;;7.10;66.60;;;;;;5224570;28;20048;-72
2022/03/29 03:01:39;;;;;;;30.35;14.98;;;7.00;66.70;;;;;;5206452;28;20124;-72
2022/03/29 03:04:15;;;;;;;26.80;14.02;;;7.00;66.80;;;;;;5226472;28;20053;-71
2022/03/29 03:06:47;;;;;;;27.75;14.65;;;7.00;67.00;;;;;;5223007;28;20415;-72
2022/03/29 03:09:20;;;;;;;29.17;14.07;;;7.00;66.90;;;;;;5223571;28;20056;-72
2022/03/29 03:11:52;;;;;;;30.13;15.52;;;6.90;67.00;;;;;;5203968;28;20068;-73
2022/03/29 03:14:25;;;;;;;30.85;14.98;;;6.90;67.30;;;;;;5220907;28;20045;-72
2022/03/29 03:16:57;;;;;;;28.73;14.60;;;6.90;67.40;;;;;;5225439;28;20417;-72
2022/03/29 03:19:41;;;;;;;25.80;13.90;;;6.80;67.50;;;;;;5227871;28;20389;-70
2022/03/29 03:22:14;;;;;;;23.25;13.52;;;6.80;67.70;;;;;;5224368;28;20041;-72
2022/03/29 03:24:46;;;;;;;26.25;14.35;;;6.80;67.80;;;;;;5224633;28;20385;-72
2022/03/29 03:27:19;;;;;;;28.13;15.73;;;6.80;67.80;;;;;;5222615;28;20037;-72
2022/03/29 03:29:52;;;;;;;26.70;15.43;;;6.80;67.80;;;;;;5224318;28;20049;-73
2022/03/29 03:32:24;;;;;;;25.80;15.02;;;6.80;67.90;;;;;;5218383;28;20060;-71
2022/03/29 03:34:57;;;;;;;29.17;15.10;;;6.70;68.60;;;;;;5219339;28;20552;-72
2022/03/29 03:37:30;;;;;;;28.45;15.50;;;6.70;68.10;;;;;;5221453;28;20048;-72
2022/03/29 03:40:08;;;;;;;30.17;14.37;;;6.70;68.10;;;;;;5220381;28;20060;-72
2022/03/29 03:42:41;;;;;;;33.10;15.27;;;6.70;68.30;;;;;;5208467;28;20052;-72
2022/03/29 03:45:14;;;;;;;29.50;14.75;;;6.70;68.40;;;;;;5213276;28;20044;-72
2022/03/29 03:47:47;;;;;;;28.15;15.18;;;6.60;68.50;;;;;;5204973;28;20056;-71
2022/03/29 03:50:19;;;;;;;24.17;14.70;;;6.60;68.50;;;;;;5224537;28;20048;-72
2022/03/29 03:52:53;;;;;;;25.98;14.63;;;6.60;68.70;;;;;;5226046;28;20036;-72
2022/03/29 03:55:26;;;;;;;27.58;14.77;;;6.60;68.80;;;;;;5217412;28;20131;-73
2022/03/29 03:57:58;;;;;;;28.40;13.50;;;6.60;68.90;;;;;;5215190;28;20040;-73
2022/03/29 04:00:30;;;;;;;26.98;15.10;;;6.60;69.00;;;;;;5212971;28;20044;-73
2022/03/29 04:03:03;;;;;;;27.90;14.95;;;6.60;69.00;;;;;;5208897;28;20548;-73
2022/03/29 04:05:36;;;;;;;27.83;14.63;;;6.60;69.10;;;;;;5199182;28;20044;-73
2022/03/29 04:08:08;;;;;;;27.55;14.55;;;6.60;69.20;;;;;;5214076;28;20386;-74
2022/03/29 04:10:41;;;;;;;26.05;13.85;;;6.50;69.30;;;;;;5219914;28;20048;-72
2022/03/29 04:13:13;;;;;;;31.30;14.50;;;6.50;69.70;;;;;;5211115;28;20103;-74
2022/03/29 04:15:46;;;;;;;26.50;14.00;;;6.40;69.70;;;;;;5210268;28;20044;-71
2022/03/29 04:18:18;;;;;;;25.83;15.15;;;6.40;69.80;;;;;;5199485;28;21157;-71
2022/03/29 04:20:50;;;;;;;30.40;14.50;;;6.40;70.00;;;;;;5212237;28;20048;-71
2022/03/29 04:23:23;;;;;;;26.35;13.77;;;6.40;70.10;;;;;;5195470;28;20592;-71
2022/03/29 04:25:57;;;;;;;25.92;14.25;;;6.40;70.10;;;;;;5214589;28;20037;-71
2022/03/29 04:28:31;;;;;;;28.73;15.52;;;6.30;70.10;;;;;;5203057;28;20049;-72
2022/03/29 04:31:03;;;;;;;26.77;14.13;;;6.40;70.20;;;;;;5197403;28;20048;-70
2022/03/29 04:33:37;;;;;;;26.88;14.13;;;6.40;70.10;;;;;;5191467;28;20072;-72
2022/03/29 04:36:09;;;;;;;24.33;14.70;;;6.40;70.00;;;;;;5218459;28;20130;-72
2022/03/29 04:38:43;;;;;;;26.50;14.95;;;6.50;70.00;;;;;;5219015;28;20318;-72
2022/03/29 04:41:16;;;;;;;33.08;14.50;;;6.50;70.20;;;;;;5217632;28;20048;-72
2022/03/29 04:43:48;;;;;;;28.65;15.07;;;6.40;70.10;;;;;;5220373;28;20504;-72
2022/03/29 04:46:21;;;;;;;24.38;13.65;;;6.40;70.30;;;;;;5215522;28;20037;-71
2022/03/29 04:48:54;;;;;;;31.05;14.30;;;6.40;70.40;;;;;;5215363;28;20616;-71
2022/03/29 04:51:26;;;;;;;26.10;13.85;;;6.40;70.60;;;;;;5215028;28;20045;-71
2022/03/29 04:53:59;;;;;;;30.10;13.85;;;6.40;70.40;;;;;;5208569;28;20048;-71
2022/03/29 04:56:33;;;;;;;27.35;14.20;;;6.40;70.60;;;;;;5215067;28;20055;-71
2022/03/29 04:59:05;;;;;;;;;;;6.30;70.50;;;;;;5214391;28;20688;-71
2022/03/29 05:01:39;;;;;;;33.25;14.93;;;6.30;72.00;;;;;;5203092;28;19924;-71
2022/03/29 05:04:12;;;;;;;29.13;13.77;;;6.30;70.30;;;;;;5213459;28;20045;-72
2022/03/29 05:06:44;;;;;;;35.25;15.10;;;6.30;70.40;;;;;;5200021;28;20053;-70
2022/03/29 05:09:17;;;;;;;32.00;14.52;;;6.30;70.50;;;;;;5194703;28;20053;-72
2022/03/29 05:11:49;;;;;;;29.85;14.13;;;6.40;70.60;;;;;;5192300;28;20052;-71
2022/03/29 05:14:21;;;;;;;29.30;14.65;;;6.50;70.60;;;;;;5188624;28;20049;-71
2022/03/29 05:16:54;;;;;;;35.33;15.02;;;6.50;70.40;;;;;;5198100;28;20041;-71
2022/03/29 05:19:27;;;;;;;28.08;13.95;;;6.50;70.40;;;;;;5216383;28;20048;-71
2022/03/29 05:21:59;;;;;;;30.15;14.85;;;6.60;70.20;;;;;;5195628;28;20064;-71
2022/03/29 05:24:32;;;;;;;29.30;15.07;;;6.60;70.20;;;;;;5214806;28;20538;-72
2022/03/29 05:27:04;;;;;;;31.35;14.88;;;6.60;70.50;;;;;;5217595;28;20041;-73
2022/03/29 05:29:37;;;;;;;30.05;14.75;;;6.60;70.40;;;;;;5196683;28;20053;-68
2022/03/29 05:32:10;;;;;;;33.42;15.00;;;6.70;70.30;;;;;;5202381;28;20067;-71
2022/03/29 05:34:43;;;;;;;35.20;16.40;;;6.70;70.20;;;;;;5198814;28;20040;-70
2022/03/29 05:37:15;;;;;;;31.10;14.63;;;6.80;70.20;;;;;;5205785;28;20443;-71
2022/03/29 05:39:48;;;;;;;32.40;15.23;;;6.80;70.10;;;;;;5218202;28;20401;-70
2022/03/29 05:42:21;;;;;;;31.23;15.13;;;6.80;70.00;;;;;;5223954;28;20044;-72
2022/03/29 05:44:53;;;;;;;27.52;14.45;;;6.80;70.10;;;;;;5218389;28;20532;-72
2022/03/29 05:50:17;;;;;;;36.72;14.65;;;6.90;70.00;;;;;;5219337;28;20049;-71
2022/03/29 05:52:49;;;;;;;39.58;17.00;;;6.90;70.00;;;;;;5217458;28;20052;-71
2022/03/29 05:55:23;;;;;;;32.92;15.25;;;7.00;70.10;;;;;;5200552;28;20045;-71
2022/03/29 05:57:56;;;;;;;34.40;15.15;;;7.00;69.90;;;;;;5216732;28;20501;-71
2022/03/29 06:00:30;;;;;;;25.75;14.05;;;7.10;69.70;;;;;;5217890;28;20437;-72
2022/03/29 06:03:03;;;;;;;30.08;15.23;;;7.10;69.60;;;;;;5197982;28;20044;-72
2022/03/29 06:05:36;;;;;;;32.83;16.50;;;7.20;69.60;;;;;;5207028;28;20059;-72
2022/03/29 06:08:09;;;;;;;28.35;15.63;;;7.20;69.50;;;;;;5212815;28;20052;-72
2022/03/29 06:10:42;;;;;;;31.95;14.73;;;7.20;69.50;;;;;;5213872;28;20051;-72
2022/03/29 06:13:15;;;;;;;33.53;15.63;;;7.30;69.30;;;;;;5200602;28;20052;-72
2022/03/29 06:15:47;;;;;;;39.60;18.45;;;7.40;69.70;;;;;;5209716;28;20033;-73
2022/03/29 06:18:20;;;;;;;40.28;16.77;;;7.50;69.10;;;;;;5203608;28;20044;-72
2022/03/29 06:20:53;;;;;;;33.80;17.50;;;7.50;69.00;;;;;;5218100;28;20365;-71
2022/03/29 06:23:26;;;;;;;30.13;15.20;;;7.50;69.10;;;;;;5216161;28;20547;-72
2022/03/29 06:25:58;;;;;;;32.10;15.77;;;7.60;69.00;;;;;;5218788;28;20048;-72
2022/03/29 06:28:31;;;;;;;36.53;15.52;;;7.70;68.80;;;;;;5201025;28;20044;-72
2022/03/29 06:31:03;;;;;;;41.08;16.30;;;7.70;69.30;;;;;;5211241;28;20055;-72
2022/03/29 06:33:35;;;;;;;35.33;15.00;;;7.90;68.70;;;;;;5214775;28;20059;-71
2022/03/29 06:36:08;;;;;;;34.20;16.88;;;7.90;68.50;;;;;;5210532;28;20067;-72
2022/03/29 06:38:40;;;;;;;28.67;14.38;;;8.10;68.30;;;;;;5213706;28;20056;-71
2022/03/29 06:41:13;;;;;;;32.95;15.52;;;8.20;67.90;;;;;;5211905;28;20055;-70
2022/03/29 06:43:47;;;;;;;29.27;14.82;;;8.30;67.50;;;;;;5219999;28;20098;-71
2022/03/29 06:46:19;;;;;;;29.17;14.85;;;8.40;67.20;;;;;;5220290;28;20044;-72
2022/03/29 06:48:54;;;;;;;30.25;15.98;;;8.50;67.20;;;;;;5224553;28;20048;-72
2022/03/29 06:51:27;;;;;;;31.95;14.75;;;8.60;66.90;;;;;;5206604;28;20582;-72
2022/03/29 06:54:00;;;;;;;28.17;14.63;;;8.70;66.80;;;;;;5225980;28;20059;-72
2022/03/29 06:56:33;;;;;;;28.67;15.43;;;8.80;66.50;;;;;;5201369;28;20048;-72
2022/03/29 06:59:05;;;;;;;31.67;15.18;;;8.80;66.30;;;;;;5220390;28;20048;-72
2022/03/29 07:01:37;;;;;;;33.95;15.65;;;8.90;65.80;;;;;;5220275;28;20040;-72
2022/03/29 07:04:11;;;;;;;29.45;14.10;;;9.00;65.50;;;;;;5218339;28;20045;-72
2022/03/29 07:06:49;;;;;;;29.60;14.15;;;9.10;65.80;;;;;;5213916;28;20056;-70
2022/03/29 07:12:22;;;;;;;26.27;13.68;;;9.30;65.40;;;;;;5218476;28;20507;-72
2022/03/29 07:14:55;;;;;;;31.87;16.07;;;9.40;65.10;;;;;;5200182;28;20049;-73
2022/03/29 07:17:27;;;;;;;38.20;15.77;;;9.50;64.80;;;;;;5237332;28;20136;-70
2022/03/29 07:20:01;;;;;;;26.00;15.15;;;9.70;64.80;;;;;;5227330;28;20045;-71
2022/03/29 07:22:35;;;;;;;36.08;16.10;;;9.80;64.60;;;;;;5196866;28;20049;-73
2022/03/29 07:25:08;;;;;;;23.92;13.38;;;9.90;64.10;;;;;;5213410;28;20500;-71
2022/03/29 07:27:41;;;;;;;25.33;13.73;;;10.00;63.70;;;;;;5201674;28;20398;-72
2022/03/29 07:30:14;;;;;;;27.15;14.07;;;10.10;63.10;;;;;;5192387;28;20045;-73
2022/03/29 07:32:49;;;;;;;24.77;13.20;;;10.20;63.00;;;;;;5218336;28;20049;-71
2022/03/29 07:35:24;;;;;;;28.05;13.85;;;10.40;62.90;;;;;;5213905;28;20393;-73
2022/03/29 07:37:58;;;;;;;27.75;13.73;;;10.50;62.30;;;;;;5224998;28;20497;-71
2022/03/29 07:40:31;;;;;;;29.95;15.23;;;10.70;61.80;;;;;;5224326;28;20044;-72
2022/03/29 07:43:05;;;;;;;20.83;12.47;;;10.90;61.30;;;;;;5223597;28;20036;-72
2022/03/29 07:45:38;;;;;;;25.20;13.15;;;11.10;60.80;;;;;;5228651;28;20469;-72
2022/03/29 07:48:11;;;;;;;23.92;12.23;;;11.20;60.20;;;;;;5206667;28;21050;-73
2022/03/29 07:51:05;;;;;;;25.80;13.07;;;11.40;59.60;;;;;;5217372;28;20408;-72
2022/03/29 07:53:38;;;;;;;24.60;13.60;;;11.60;59.40;;;;;;5226209;28;20408;-72
2022/03/29 07:56:11;;;;;;;26.27;12.98;;;11.70;59.20;;;;;;5225405;28;20032;-71
2022/03/29 07:58:43;;;;;;;25.30;13.27;;;11.80;58.90;;;;;;5223287;28;20044;-72
2022/03/29 08:01:16;;;;;;;24.75;12.20;;;11.90;58.80;;;;;;5228497;28;20037;-71
2022/03/29 08:03:49;;;;;;;23.57;13.13;;;12.10;58.50;;;;;;5227266;28;20045;-70
2022/03/29 08:06:22;;;;;;;29.23;14.13;;;12.20;58.30;;;;;;5229228;28;20302;-73
2022/03/29 08:08:54;;;;;;;25.95;13.50;;;12.40;57.30;;;;;;5232975;28;20095;-72
2022/03/29 08:11:29;;;;;;;24.00;13.32;;;12.50;56.60;;;;;;5182467;28;20052;-72
2022/03/29 08:14:01;;;;;;;24.65;12.95;;;12.60;56.50;;;;;;5214803;28;20443;-72
2022/03/29 08:16:34;;;;;;;28.08;13.30;;;12.80;56.10;;;;;;5231809;28;20155;-73
2022/03/29 08:19:07;;;;;;;26.60;12.63;;;13.00;55.80;;;;;;5229748;28;21252;-72
2022/03/29 08:21:49;;;;;;;25.20;14.23;;;13.10;55.80;;;;;;5229496;28;20496;-71
2022/03/29 08:24:24;;;;;;;31.20;13.30;;;13.30;55.10;;;;;;5229760;28;20048;-70
2022/03/29 08:26:56;;;;;;;29.23;13.40;;;13.60;54.10;;;;;;5230810;28;20140;-71
2022/03/29 08:29:34;;;;;;;27.98;12.75;;;13.70;52.70;;;;;;5212881;28;20071;-71
2022/03/29 08:32:07;;;;;;;;;;;14.00;51.60;;;;;;5210857;28;21298;-72
2022/03/29 08:34:39;;;;;;;23.85;13.18;;;14.20;50.50;;;;;;5230330;28;20474;-72
2022/03/29 08:37:12;;;;;;;21.27;13.13;;;14.30;50.30;;;;;;5216252;28;20493;-70
2022/03/29 08:39:44;;;;;;;30.55;13.82;;;14.40;49.70;;;;;;5231675;28;20060;-73
2022/03/29 08:42:18;;;;;;;28.27;14.38;;;14.40;48.80;;;;;;5229160;28;20045;-71
2022/03/29 08:44:50;;;;;;;;;;;14.50;49.20;;;;;;5216127;28;20052;-73
2022/03/29 08:47:25;;;;;;;24.35;13.55;;;14.60;47.90;;;;;;5224363;28;20311;-71
2022/03/29 08:49:58;;;;;;;21.55;13.13;;;14.70;49.00;;;;;;5207618;28;20151;-72
2022/03/29 08:52:31;;;;;;;29.80;13.73;;;14.70;48.30;;;;;;5208422;28;20428;-72
2022/03/29 08:55:04;;;;;;;26.98;14.07;;;14.80;49.30;;;;;;5229150;28;20071;-73
2022/03/29 08:57:38;;;;;;;30.20;14.53;;;14.90;47.80;;;;;;5228320;28;20055;-72
2022/03/29 09:00:11;;;;;;;24.35;14.02;;;14.90;47.80;;;;;;5222685;28;20425;-70
2022/03/29 09:02:44;;;;;;;28.50;14.00;;;15.00;47.90;;;;;;5206235;28;20041;-73
2022/03/29 09:05:22;;;;;;;28.52;13.27;;;15.10;47.90;;;;;;5225921;28;20139;-73
2022/03/29 09:07:56;;;;;;;23.42;13.85;;;15.20;47.90;;;;;;5203572;28;20067;-73
2022/03/29 09:10:38;;;;;;;27.38;13.13;;;15.50;47.70;;;;;;5205709;28;20508;-72
2022/03/29 09:13:29;;;;;;;29.25;13.35;;;15.60;47.20;;;;;;5222492;28;20056;-71
2022/03/29 09:16:02;;;;;;;25.73;13.90;;;15.70;47.30;;;;;;5224226;28;20446;-71
2022/03/29 09:18:35;;;;;;;28.77;12.90;;;15.80;47.20;;;;;;5216327;28;21140;-72
2022/03/29 09:21:14;;;;;;;21.67;12.77;;;16.00;47.50;;;;;;5221263;28;20608;-72
2022/03/29 09:24:11;;;;;;;31.80;13.35;;;16.10;47.20;;;;;;5200599;28;20060;-73
2022/03/29 09:26:47;;;;;;;24.33;13.50;;;16.30;46.80;;;;;;5211282;28;20122;-71
2022/03/29 09:29:21;;;;;;;23.02;13.27;;;16.40;47.10;;;;;;5222044;28;20045;-71
2022/03/29 09:32:12;;;;;;;25.48;13.63;;;16.50;46.60;;;;;;5222241;28;20062;-71
2022/03/29 09:35:03;;;;;;;26.60;14.15;;;16.50;46.20;;;;;;5220349;28;20048;-73
2022/03/29 09:37:36;;;;;;;24.83;13.52;;;16.40;45.60;;;;;;5199957;28;20524;-73
2022/03/29 09:40:09;;;;;;;24.83;13.38;;;16.40;46.20;;;;;;5212865;28;20044;-71
2022/03/29 09:43:10;;;;;;;23.55;13.48;;;16.40;47.00;;;;;;5205214;28;20048;-71
2022/03/29 09:45:44;;;;;;;24.25;13.13;;;16.40;46.00;;;;;;5217546;28;20484;-71
2022/03/29 09:48:21;;;;;;;26.55;13.75;;;16.40;46.80;;;;;;5224263;28;20041;-73
2022/03/29 09:51:17;;;;;;;25.98;13.73;;;16.50;47.00;;;;;;5221093;28;20052;-72
2022/03/29 09:53:52;;;;;;;29.80;13.95;;;16.70;47.00;;;;;;5217878;28;20048;-71
2022/03/29 09:56:30;;;;;;;26.55;14.23;;;16.80;46.20;;;;;;5210153;28;20491;-71
2022/03/29 09:59:20;;;;;;;24.42;13.18;;;16.80;45.30;;;;;;5206358;28;20119;-72
2022/03/29 10:01:55;;;;;;;27.60;13.25;;;16.90;45.70;;;;;;5219669;28;20057;-72
2022/03/29 10:04:30;;;;;;;22.92;12.77;;;17.00;45.70;;;;;;5222891;28;20103;-72
2022/03/29 10:07:03;;;;;;;;;;;17.00;45.70;;;;;;5226993;28;20059;-73
2022/03/29 10:09:38;;;;;;;24.20;13.80;;;17.00;44.60;;;;;;5224466;28;19927;-73
2022/03/29 10:12:13;;;;;;;22.77;13.23;;;17.10;45.80;;;;;;5228799;28;20044;-73
2022/03/29 10:14:47;;;;;;;23.70;13.50;;;17.10;45.60;;;;;;5222817;28;20048;-72
2022/03/29 10:17:20;;;;;;;28.50;14.85;;;17.10;45.40;;;;;;5215944;28;20056;-73
2022/03/29 10:19:54;;;;;;;28.52;14.80;;;17.10;45.30;;;;;;5222303;28;20416;-73
2022/03/29 10:22:28;;;;;;;25.73;13.98;;;17.20;45.20;;;;;;5211244;28;20059;-73
2022/03/29 10:25:01;;;;;;;23.48;13.95;;;17.20;45.30;;;;;;5221401;28;20064;-74
2022/03/29 10:27:34;;;;;;;29.88;13.88;;;17.30;44.90;;;;;;5226638;28;20041;-71
2022/03/29 10:30:06;;;;;;;28.35;14.63;;;17.30;45.00;;;;;;5210546;28;20069;-72
2022/03/29 10:32:39;;;;;;;25.10;15.18;;;17.40;44.80;;;;;;5226360;28;20048;-72
2022/03/29 10:35:17;;;;;;;32.33;14.52;;;17.50;44.40;;;;;;5225675;28;20045;-71
2022/03/29 10:37:56;;;;;;;22.80;13.68;;;17.60;44.30;;;;;;5204512;28;20052;-72
2022/03/29 10:40:39;;;;;;;28.45;14.80;;;17.50;43.90;;;;;;5201400;28;20056;-71
2022/03/29 10:43:32;;;;;;;26.50;14.10;;;17.50;43.50;;;;;;5218127;28;20052;-71
2022/03/29 10:46:22;;;;;;;29.35;14.27;;;17.40;43.50;;;;;;5224297;28;20377;-72
2022/03/29 10:49:24;;;;;;;23.05;14.07;;;17.40;44.10;;;;;;5217425;28;20377;-73
2022/03/29 10:52:05;;;;;;;31.48;14.40;;;17.50;44.60;;;;;;5204621;28;20588;-73
2022/03/29 10:54:43;;;;;;;27.98;14.38;;;17.60;43.60;;;;;;5224715;28;20148;-71
2022/03/29 10:57:24;;;;;;;26.35;15.15;;;17.70;44.00;;;;;;5223291;28;21021;-72
2022/03/29 11:00:12;;;;;;;24.77;13.48;;;17.70;43.80;;;;;;5222489;28;20041;-73
2022/03/29 11:03:08;;;;;;;30.27;14.60;;;17.70;43.40;;;;;;5228477;28;20059;-73
2022/03/29 11:06:10;;;;;;;26.02;14.20;;;17.80;44.10;;;;;;5205827;28;20049;-72
2022/03/29 11:08:47;;;;;;;24.58;14.80;;;17.80;42.80;;;;;;5223767;28;20096;-72
2022/03/29 11:11:39;;;;;;;27.05;13.32;;;17.80;43.00;;;;;;5216187;28;20424;-73
2022/03/29 11:14:34;;;;;;;25.27;14.65;;;17.80;42.90;;;;;;5214618;28;20052;-73
2022/03/29 11:17:10;;;;;;;23.15;13.10;;;17.90;42.90;;;;;;5216732;28;20053;-73
2022/03/29 11:19:48;;;;;;;28.23;15.05;;;18.00;43.20;;;;;;5205179;28;20037;-73
2022/03/29 11:22:29;;;;;;;23.63;14.07;;;18.10;42.90;;;;;;5206461;28;20049;-73
2022/03/29 11:25:06;;;;;;;30.13;14.00;;;18.10;42.60;;;;;;5207137;28;20045;-73
2022/03/29 11:27:39;;;;;;;31.73;14.23;;;18.20;42.70;;;;;;5171771;28;20056;-73
2022/03/29 11:30:12;;;;;;;25.30;13.63;;;18.10;42.00;;;;;;5213476;28;20151;-71
2022/03/29 11:32:46;;;;;;;25.55;14.00;;;18.10;42.50;;;;;;5221736;28;20045;-72
2022/03/29 11:35:20;;;;;;;37.83;13.88;;;18.10;42.40;;;;;;5204127;28;20048;-73
2022/03/29 11:37:53;;;;;;;25.63;14.68;;;18.10;42.00;;;;;;5199664;28;20052;-72
2022/03/29 11:40:29;;;;;;;30.63;13.73;;;18.00;41.80;;;;;;5230943;28;20052;-73
2022/03/29 11:43:05;;;;;;;32.42;13.35;;;18.10;42.10;;;;;;5215399;28;20055;-72
2022/03/29 11:45:44;;;;;;;27.92;12.10;;;18.20;41.50;;;;;;5201429;28;20044;-71
2022/03/29 11:48:24;;;;;;;24.65;11.70;;;18.30;41.80;;;;;;5206168;28;20534;-72
2022/03/29 11:51:00;;;;;;;24.15;10.85;;;18.40;41.50;;;;;;5201939;28;20048;-75
2022/03/29 11:53:35;;;;;;;23.70;10.60;;;18.30;40.20;;;;;;5208796;28;20070;-72
2022/03/29 11:56:11;;;;;;;23.30;11.30;;;18.10;40.80;;;;;;5227396;28;20072;-72
2022/03/29 11:58:45;;;;;;;24.67;11.30;;;18.20;40.90;;;;;;5207247;28;20518;-72
2022/03/29 12:01:19;;;;;;;;;;;18.30;41.60;;;;;;5225994;28;20060;-72
2022/03/29 12:03:55;;;;;;;20.48;11.75;;;18.30;40.20;;;;;;5212405;28;19929;-71
2022/03/29 12:06:30;;;;;;;24.00;11.77;;;18.50;41.30;;;;;;5218090;28;20056;-71
2022/03/29 12:09:05;;;;;;;24.10;13.02;;;18.50;40.60;;;;;;5204720;28;20056;-73
2022/03/29 12:11:39;;;;;;;22.23;12.38;;;18.40;40.60;;;;;;5193584;28;20136;-71
2022/03/29 12:14:18;;;;;;;21.48;10.32;;;18.50;41.30;;;;;;5214337;28;20041;-74
2022/03/29 12:16:59;;;;;;;22.48;11.75;;;18.60;40.60;;;;;;5187480;28;20045;-73
2022/03/29 12:19:34;;;;;;;16.40;10.50;;;18.50;40.10;;;;;;5213545;28;20511;-71
2022/03/29 12:22:09;;;;;;;26.05;11.20;;;18.60;40.90;;;;;;5222710;28;20060;-72
2022/03/29 12:24:42;;;;;;;20.45;10.90;;;18.70;40.40;;;;;;5217783;28;20131;-74
2022/03/29 12:27:16;;;;;;;;;;;18.70;39.50;;;;;;5199162;28;20045;-72
2022/03/29 12:30:01;;;;;;;24.05;11.27;;;18.50;39.70;;;;;;5211078;28;19925;-71
2022/03/29 12:32:39;;;;;;;33.95;11.07;;;18.60;40.10;;;;;;5210697;28;20499;-72
2022/03/29 12:35:18;;;;;;;19.55;10.60;;;18.80;39.70;;;;;;5218777;28;20977;-73
2022/03/29 12:38:03;;;;;;;20.75;11.27;;;18.80;39.30;;;;;;5206172;28;20048;-69
2022/03/29 12:40:39;;;;;;;25.05;10.98;;;18.70;39.20;;;;;;5207818;28;20382;-70
2022/03/29 12:43:12;;;;;;;28.48;12.82;;;18.80;39.50;;;;;;5216206;28;20048;-71
2022/03/29 12:45:48;;;;;;;23.33;12.10;;;18.90;39.80;;;;;;5200225;28;20045;-69
2022/03/29 12:48:22;;;;;;;17.85;11.90;;;19.10;39.70;;;;;;5195683;28;20041;-70
2022/03/29 12:50:54;;;;;;;23.48;12.13;;;19.10;39.50;;;;;;5205827;28;20048;-68
2022/03/29 12:53:27;;;;;;;22.95;13.10;;;19.20;39.80;;;;;;5211195;28;20048;-70
2022/03/29 12:56:00;;;;;;;25.73;13.32;;;19.10;39.80;;;;;;5203291;28;20041;-69
2022/03/29 12:58:36;;;;;;;;;;;18.90;39.60;;;;;;5210528;28;20484;-69
2022/03/29 13:01:25;;;;;;;24.60;12.45;;;18.70;39.00;;;;;;5209618;28;19924;-69
2022/03/29 13:04:09;;;;;;;23.67;12.23;;;18.70;39.20;;;;;;5217583;28;20517;-70
2022/03/29 13:06:43;;;;;;;22.88;11.45;;;18.80;39.50;;;;;;5214429;28;20068;-68
2022/03/29 13:09:16;;;;;;;24.10;12.13;;;19.00;39.40;;;;;;5204137;28;20428;-71
2022/03/29 13:12:09;;;;;;;23.85;11.35;;;19.10;39.00;;;;;;5224573;28;20040;-72
2022/03/29 13:14:43;;;;;;;25.67;11.43;;;19.30;38.70;;;;;;5222255;28;20041;-72
2022/03/29 13:17:16;;;;;;;25.50;12.95;;;19.50;39.40;;;;;;5214552;28;20052;-70
2022/03/29 13:19:54;;;;;;;27.27;12.40;;;19.40;38.90;;;;;;5218248;28;20036;-71
2022/03/29 13:22:26;;;;;;;24.00;11.95;;;19.40;38.70;;;;;;5209539;28;20049;-70
2022/03/29 13:24:59;;;;;;;25.40;12.35;;;19.30;39.10;;;;;;5213575;28;20060;-72